createdAt,value
2019-03-09T00:02:00.939Z,6.00
2019-03-09T00:05:05.523Z,6.00
2019-03-09T00:08:08.990Z,6.00
2019-03-09T00:11:16.694Z,6.00
2019-03-09T00:14:20.153Z,6.00
2019-03-09T00:17:23.618Z,6.00
2019-03-09T00:20:27.062Z,6.10
2019-03-09T00:23:43.977Z,6.10
2019-03-09T00:26:54.844Z,6.10
2019-03-09T00:29:59.962Z,6.10
2019-03-09T00:33:03.470Z,6.20
2019-03-09T00:36:06.938Z,6.20
2019-03-09T00:39:10.374Z,6.10
2019-03-09T00:42:13.854Z,6.20
2019-03-09T00:45:17.366Z,6.20
2019-03-09T00:48:20.923Z,6.10
2019-03-09T00:51:24.356Z,6.10
2019-03-09T00:54:27.826Z,6.20
2019-03-09T00:57:31.254Z,6.20
2019-03-09T01:00:34.714Z,6.30
2019-03-09T01:03:38.154Z,6.30
2019-03-09T01:06:41.619Z,6.30
2019-03-09T01:09:45.054Z,6.20
2019-03-09T01:12:48.509Z,6.20
2019-03-09T01:15:51.939Z,6.20
2019-03-09T01:18:55.408Z,6.20
2019-03-09T01:21:58.842Z,6.30
2019-03-09T01:25:02.302Z,6.30
2019-03-09T01:28:05.766Z,6.30
2019-03-09T01:31:09.201Z,6.30
2019-03-09T01:34:12.678Z,6.40
2019-03-09T01:37:16.113Z,6.40
2019-03-09T01:40:19.574Z,6.40
2019-03-09T01:43:23.013Z,6.50
2019-03-09T01:46:26.484Z,6.50
2019-03-09T01:49:29.918Z,6.50
2019-03-09T01:52:33.385Z,6.60
2019-03-09T01:55:36.831Z,6.60
2019-03-09T01:58:40.305Z,6.60
2019-03-09T02:01:44.065Z,6.60
2019-03-09T02:04:47.524Z,6.60
2019-03-09T02:07:50.989Z,6.60
2019-03-09T02:10:54.429Z,6.60
2019-03-09T02:13:57.960Z,6.60
2019-03-09T02:17:01.401Z,6.60
2019-03-09T02:20:17.451Z,6.70
2019-03-09T02:23:20.883Z,6.70
2019-03-09T02:26:24.351Z,6.70
2019-03-09T02:29:27.786Z,6.70
2019-03-09T02:32:31.257Z,6.80
2019-03-09T02:35:34.702Z,6.70
2019-03-09T02:38:39.815Z,6.80
2019-03-09T02:41:43.243Z,6.80
2019-03-09T02:44:46.710Z,6.80
2019-03-09T02:47:50.462Z,6.80
2019-03-09T02:50:56.721Z,6.80
2019-03-09T02:54:00.198Z,6.90
2019-03-09T02:57:03.634Z,6.80
2019-03-09T03:00:20.925Z,6.80
2019-03-09T03:03:24.395Z,6.80
2019-03-09T03:06:27.903Z,6.80
2019-03-09T03:09:31.578Z,6.80
2019-03-09T03:12:35.022Z,6.70
2019-03-09T03:15:38.562Z,6.70
2019-03-09T03:18:42.000Z,6.60
2019-03-09T03:21:45.619Z,6.60
2019-03-09T03:24:49.274Z,6.60
2019-03-09T03:27:52.731Z,6.60
2019-03-09T03:30:56.200Z,6.60
2019-03-09T03:33:59.644Z,6.60
2019-03-09T03:37:03.181Z,6.50
2019-03-09T03:40:09.256Z,6.50
2019-03-09T03:43:12.717Z,6.40
2019-03-09T03:46:16.141Z,6.30
2019-03-09T03:49:19.606Z,6.30
2019-03-09T03:52:23.046Z,6.20
2019-03-09T03:55:26.544Z,6.20
2019-03-09T03:58:30.034Z,6.10
2019-03-09T04:01:33.501Z,6.00
2019-03-09T04:04:36.950Z,6.00
2019-03-09T04:07:41.341Z,6.00
2019-03-09T04:10:44.793Z,5.90
2019-03-09T04:13:48.306Z,5.90
2019-03-09T04:16:51.782Z,5.80
2019-03-09T04:19:55.219Z,5.80
2019-03-09T04:22:58.666Z,5.80
2019-03-09T04:26:02.101Z,5.80
2019-03-09T04:29:05.555Z,5.70
2019-03-09T04:32:09.014Z,5.70
2019-03-09T04:35:12.459Z,5.70
2019-03-09T04:38:15.916Z,5.70
2019-03-09T04:41:19.382Z,5.60
2019-03-09T04:44:22.818Z,5.60
2019-03-09T04:47:26.268Z,5.60
2019-03-09T04:50:29.753Z,5.50
2019-03-09T04:53:33.194Z,5.50
2019-03-09T04:56:36.653Z,5.40
2019-03-09T04:59:40.094Z,5.50
2019-03-09T05:02:43.545Z,5.40
2019-03-09T05:05:47.032Z,5.40
2019-03-09T05:08:53.597Z,5.40
2019-03-09T05:11:57.053Z,5.40
2019-03-09T05:15:02.498Z,5.40
2019-03-09T05:18:05.938Z,5.40
2019-03-09T05:21:09.402Z,5.40
2019-03-09T05:24:12.858Z,5.40
2019-03-09T05:27:16.313Z,5.40
2019-03-09T05:30:39.758Z,5.40
2019-03-09T05:33:43.214Z,5.50
2019-03-09T05:36:46.676Z,5.60
2019-03-09T05:39:50.145Z,5.50
2019-03-09T05:42:53.678Z,5.50
2019-03-09T05:45:57.120Z,5.50
2019-03-09T05:49:00.591Z,5.50
2019-03-09T05:52:19.114Z,5.50
2019-03-09T05:55:22.583Z,5.50
2019-03-09T05:58:26.123Z,5.60
2019-03-09T06:01:29.617Z,5.60
2019-03-09T06:04:33.074Z,5.60
2019-03-09T06:07:36.504Z,5.60
2019-03-09T06:10:39.967Z,5.60
2019-03-09T06:13:43.418Z,5.60
2019-03-09T06:16:46.880Z,5.70
2019-03-09T06:19:50.333Z,5.70
2019-03-09T06:22:53.790Z,5.70
2019-03-09T06:25:57.230Z,5.80
2019-03-09T06:29:00.681Z,5.80
2019-03-09T06:32:33.074Z,5.80
2019-03-09T06:35:36.530Z,5.80
2019-03-09T06:38:51.173Z,5.80
2019-03-09T06:42:09.481Z,5.80
2019-03-09T06:45:13.488Z,5.80
2019-03-09T06:48:16.942Z,5.80
2019-03-09T06:51:20.401Z,5.90
2019-03-09T06:54:23.874Z,5.90
2019-03-09T06:57:27.374Z,5.90
2019-03-09T07:00:35.625Z,6.00
2019-03-09T07:03:39.058Z,6.00
2019-03-09T07:06:42.523Z,6.00
2019-03-09T07:09:45.980Z,6.10
2019-03-09T07:12:49.431Z,6.10
2019-03-09T07:15:52.886Z,6.20
2019-03-09T07:18:56.337Z,6.90
2019-03-09T07:21:59.783Z,7.40
2019-03-09T07:25:03.226Z,7.90
2019-03-09T07:28:08.520Z,8.30
2019-03-09T07:31:11.989Z,8.80
2019-03-09T07:34:27.821Z,9.40
2019-03-09T07:37:31.269Z,9.70
2019-03-09T07:40:34.723Z,9.80
2019-03-09T07:43:38.187Z,9.30
2019-03-09T07:46:41.621Z,8.70
2019-03-09T07:49:45.072Z,8.40
2019-03-09T07:52:48.521Z,8.60
2019-03-09T07:55:52.011Z,8.60
2019-03-09T07:58:55.505Z,8.60
2019-03-09T08:01:58.941Z,8.90
2019-03-09T08:05:02.407Z,9.70
2019-03-09T08:08:05.862Z,9.90
2019-03-09T08:11:09.334Z,10.00
2019-03-09T08:14:12.765Z,10.00
2019-03-09T08:17:16.229Z,10.20
2019-03-09T08:20:23.196Z,10.80
2019-03-09T08:23:26.653Z,11.00
2019-03-09T08:26:30.113Z,11.00
2019-03-09T08:29:33.625Z,10.60
2019-03-09T08:32:37.120Z,10.50
2019-03-09T08:35:40.734Z,11.20
2019-03-09T08:38:44.326Z,12.00
2019-03-09T08:41:47.832Z,12.10
2019-03-09T08:44:51.282Z,12.00
2019-03-09T08:47:54.745Z,12.10
2019-03-09T08:50:58.211Z,11.90
2019-03-09T08:54:01.666Z,11.80
2019-03-09T08:57:05.213Z,11.60
2019-03-09T09:00:21.014Z,11.50
2019-03-09T09:03:24.521Z,11.10
2019-03-09T09:06:27.989Z,11.00
2019-03-09T09:09:31.437Z,10.90
2019-03-09T09:12:34.910Z,10.80
2019-03-09T09:15:38.349Z,10.50
2019-03-09T09:18:41.838Z,10.40
2019-03-09T09:21:45.278Z,10.40
2019-03-09T09:24:48.743Z,10.50
2019-03-09T09:27:52.480Z,10.50
2019-03-09T09:30:56.045Z,10.30
2019-03-09T09:33:59.562Z,10.50
2019-03-09T09:37:03.106Z,10.80
2019-03-09T09:40:15.580Z,10.80
2019-03-09T09:43:19.029Z,10.80
2019-03-09T09:46:22.494Z,10.70
2019-03-09T09:49:25.985Z,10.60
2019-03-09T09:52:29.421Z,10.70
2019-03-09T09:55:32.881Z,10.60
2019-03-09T09:58:36.362Z,10.60
2019-03-09T10:01:39.803Z,10.80
2019-03-09T10:04:43.265Z,10.60
2019-03-09T10:07:46.739Z,10.60
2019-03-09T10:10:50.190Z,10.50
2019-03-09T10:13:53.653Z,10.30
2019-03-09T10:16:57.118Z,10.30
2019-03-09T10:20:00.568Z,10.30
2019-03-09T10:23:05.106Z,10.40
2019-03-09T10:26:08.617Z,10.50
2019-03-09T10:29:12.085Z,10.60
2019-03-09T10:32:15.531Z,10.60
2019-03-09T10:35:19.431Z,10.50
2019-03-09T10:38:22.871Z,10.60
2019-03-09T10:41:26.328Z,10.70
2019-03-09T10:44:29.793Z,10.80
2019-03-09T10:47:33.224Z,10.80
2019-03-09T10:50:36.697Z,10.70
2019-03-09T10:53:40.157Z,10.70
2019-03-09T10:56:43.604Z,10.70
2019-03-09T10:59:47.065Z,10.60
2019-03-09T11:02:50.530Z,10.60
2019-03-09T11:05:53.997Z,10.50
2019-03-09T11:08:57.475Z,10.50
2019-03-09T11:12:00.915Z,10.50
2019-03-09T11:15:06.113Z,10.60
2019-03-09T11:18:09.557Z,10.80
2019-03-09T11:21:13.026Z,11.00
2019-03-09T11:24:16.482Z,11.00
2019-03-09T11:27:19.921Z,11.10
2019-03-09T11:30:27.874Z,11.20
2019-03-09T11:33:31.353Z,11.20
2019-03-09T11:36:34.786Z,11.30
2019-03-09T11:39:38.244Z,11.40
2019-03-09T11:42:41.682Z,11.40
2019-03-09T11:45:45.142Z,11.50
2019-03-09T11:48:48.588Z,11.40
2019-03-09T11:51:52.049Z,11.40
2019-03-09T11:54:55.496Z,11.40
2019-03-09T11:57:58.961Z,11.30
2019-03-09T12:01:02.403Z,11.20
2019-03-09T12:04:05.876Z,11.20
2019-03-09T12:07:09.343Z,11.30
2019-03-09T12:10:13.125Z,11.30
2019-03-09T12:13:16.582Z,11.50
2019-03-09T12:16:20.048Z,11.60
2019-03-09T12:19:23.488Z,11.60
2019-03-09T12:22:26.958Z,11.60
2019-03-09T12:25:30.414Z,11.60
2019-03-09T12:28:33.867Z,11.70
2019-03-09T12:31:37.322Z,11.60
2019-03-09T12:34:40.795Z,11.60
2019-03-09T12:37:44.278Z,11.60
2019-03-09T12:40:47.714Z,11.60
2019-03-09T12:43:51.177Z,11.70
2019-03-09T12:46:54.614Z,11.70
2019-03-09T12:49:58.189Z,11.90
2019-03-09T12:53:01.650Z,11.80
2019-03-09T12:56:05.170Z,11.80
2019-03-09T12:59:08.633Z,11.90
2019-03-09T13:02:12.068Z,12.00
2019-03-09T13:05:17.279Z,12.20
2019-03-09T13:08:20.741Z,12.20
2019-03-09T13:11:24.187Z,12.10
2019-03-09T13:14:27.656Z,12.10
2019-03-09T13:17:32.013Z,12.30
2019-03-09T13:20:35.474Z,12.40
2019-03-09T13:23:38.941Z,12.50
2019-03-09T13:26:42.394Z,12.40
2019-03-09T13:29:45.871Z,12.20
2019-03-09T13:32:50.207Z,12.10
2019-03-09T13:35:53.657Z,12.00
2019-03-09T13:38:57.137Z,12.00
2019-03-09T13:42:00.573Z,11.90
2019-03-09T13:45:06.395Z,11.80
2019-03-09T13:48:09.872Z,11.70
2019-03-09T13:51:13.378Z,11.60
2019-03-09T13:54:16.837Z,11.60
2019-03-09T13:57:20.297Z,11.50
2019-03-09T14:00:23.761Z,11.50
2019-03-09T14:03:27.204Z,11.40
2019-03-09T14:06:30.665Z,11.40
2019-03-09T14:09:34.110Z,11.30
2019-03-09T14:12:37.573Z,11.30
2019-03-09T14:15:50.237Z,11.30
2019-03-09T14:18:53.674Z,11.40
2019-03-09T14:21:57.136Z,11.30
2019-03-09T14:25:00.573Z,11.20
2019-03-09T14:28:04.053Z,11.30
2019-03-09T14:31:07.494Z,11.30
2019-03-09T14:34:10.962Z,11.30
2019-03-09T14:37:14.405Z,11.30
2019-03-09T14:40:17.866Z,11.20
2019-03-09T14:43:21.330Z,11.30
2019-03-09T14:46:24.775Z,11.30
2019-03-09T14:49:28.245Z,11.40
2019-03-09T14:52:31.674Z,11.30
2019-03-09T14:55:35.137Z,11.40
2019-03-09T14:58:38.578Z,11.40
2019-03-09T15:01:42.041Z,11.50
2019-03-09T15:04:45.528Z,11.60
2019-03-09T15:07:48.957Z,11.50
2019-03-09T15:10:52.419Z,11.40
2019-03-09T15:13:56.042Z,11.00
2019-03-09T15:16:59.605Z,10.20
2019-03-09T15:20:03.640Z,9.70
2019-03-09T15:23:07.097Z,9.40
2019-03-09T15:26:10.523Z,9.30
2019-03-09T15:29:13.982Z,9.20
2019-03-09T15:32:17.437Z,9.10
2019-03-09T15:35:20.867Z,9.20
2019-03-09T15:38:24.333Z,9.20
2019-03-09T15:41:27.790Z,9.20
2019-03-09T15:44:31.242Z,9.10
2019-03-09T15:47:34.697Z,9.00
2019-03-09T15:50:38.129Z,9.00
2019-03-09T15:53:41.590Z,9.00
2019-03-09T15:56:45.137Z,9.00
2019-03-09T15:59:48.575Z,8.80
2019-03-09T16:02:52.474Z,8.50
2019-03-09T16:05:55.911Z,8.00
2019-03-09T16:08:59.370Z,7.70
2019-03-09T16:12:02.829Z,7.50
2019-03-09T16:15:07.925Z,7.50
2019-03-09T16:18:11.386Z,7.40
2019-03-09T16:21:14.830Z,7.40
2019-03-09T16:24:18.273Z,7.40
2019-03-09T16:27:21.738Z,7.50
2019-03-09T16:30:25.174Z,7.50
2019-03-09T16:33:28.629Z,7.50
2019-03-09T16:36:32.081Z,7.50
2019-03-09T16:39:35.542Z,7.50
2019-03-09T16:42:39.245Z,7.50
2019-03-09T16:45:57.949Z,7.50
2019-03-09T16:49:01.413Z,7.50
2019-03-09T16:52:04.870Z,7.60
2019-03-09T16:55:08.670Z,7.60
2019-03-09T16:58:12.106Z,7.60
2019-03-09T17:01:15.568Z,7.50
2019-03-09T17:04:19.037Z,7.40
2019-03-09T17:07:22.498Z,7.20
2019-03-09T17:10:25.955Z,7.00
2019-03-09T17:13:29.394Z,6.80
2019-03-09T17:16:32.933Z,6.70
2019-03-09T17:19:36.358Z,6.60
2019-03-09T17:22:39.823Z,6.50
2019-03-09T17:25:43.288Z,6.40
2019-03-09T17:28:46.716Z,6.30
2019-03-09T17:31:50.171Z,6.30
2019-03-09T17:34:53.601Z,6.20
2019-03-09T17:37:57.057Z,6.10
2019-03-09T17:41:00.529Z,6.10
2019-03-09T17:44:04.125Z,6.10
2019-03-09T17:47:07.586Z,6.10
2019-03-09T17:50:12.867Z,6.10
2019-03-09T17:53:16.334Z,6.10
2019-03-09T17:56:19.834Z,5.90
2019-03-09T17:59:23.304Z,5.90
2019-03-09T18:02:26.735Z,5.80
2019-03-09T18:05:30.189Z,5.90
2019-03-09T18:08:46.717Z,5.90
2019-03-09T18:11:50.190Z,5.90
2019-03-09T18:14:53.621Z,6.00
2019-03-09T18:17:57.154Z,6.00
2019-03-09T18:21:00.585Z,6.00
2019-03-09T18:24:04.047Z,6.00
2019-03-09T18:27:07.509Z,6.00
2019-03-09T18:30:12.022Z,6.00
2019-03-09T18:33:15.526Z,6.00
2019-03-09T18:36:18.978Z,6.00
2019-03-09T18:39:22.423Z,5.90
2019-03-09T18:42:25.910Z,5.90
2019-03-09T18:45:29.341Z,5.90
2019-03-09T18:48:32.793Z,5.90
2019-03-09T18:51:36.229Z,5.90
2019-03-09T18:54:39.700Z,5.80
2019-03-09T18:57:43.125Z,5.80
2019-03-09T19:00:46.590Z,5.70
2019-03-09T19:03:50.048Z,5.50
2019-03-09T19:06:53.507Z,5.50
2019-03-09T19:09:56.956Z,5.40
2019-03-09T19:13:00.397Z,5.30
2019-03-09T19:16:03.865Z,5.30
2019-03-09T19:19:07.301Z,5.30
2019-03-09T19:22:10.765Z,5.30
2019-03-09T19:25:15.154Z,5.30
2019-03-09T19:28:18.623Z,5.40
2019-03-09T19:31:22.148Z,5.30
2019-03-09T19:34:25.582Z,5.30
2019-03-09T19:37:29.040Z,5.40
2019-03-09T19:40:32.473Z,5.50
2019-03-09T19:43:35.945Z,5.50
2019-03-09T19:46:39.449Z,5.50
2019-03-09T19:49:42.915Z,5.50
2019-03-09T19:52:46.366Z,5.40
2019-03-09T19:55:49.810Z,5.40
2019-03-09T19:58:53.775Z,5.30
2019-03-09T20:01:57.213Z,5.30
2019-03-09T20:05:00.670Z,5.30
2019-03-09T20:08:04.104Z,5.30
2019-03-09T20:11:07.563Z,5.30
2019-03-09T20:14:10.988Z,5.30
2019-03-09T20:17:14.469Z,5.20
2019-03-09T20:20:20.830Z,5.20
2019-03-09T20:23:24.282Z,5.20
2019-03-09T20:26:27.717Z,5.20
2019-03-09T20:29:31.181Z,5.20
2019-03-09T20:32:34.620Z,5.10
2019-03-09T20:35:38.153Z,5.10
2019-03-09T20:38:41.594Z,5.00
2019-03-09T20:41:45.061Z,5.00
2019-03-09T20:44:48.497Z,5.00
2019-03-09T20:47:51.985Z,5.00
2019-03-09T20:50:55.489Z,4.90
2019-03-09T20:53:58.961Z,4.90
2019-03-09T20:57:02.398Z,4.90
2019-03-09T21:00:14.671Z,4.90
2019-03-09T21:03:18.134Z,4.90
2019-03-09T21:06:21.610Z,4.80
2019-03-09T21:09:25.046Z,4.80
2019-03-09T21:12:28.506Z,4.80
2019-03-09T21:15:31.971Z,4.90
2019-03-09T21:18:35.489Z,4.80
2019-03-09T21:21:38.946Z,4.80
2019-03-09T21:24:42.426Z,4.80
2019-03-09T21:27:45.862Z,4.80
2019-03-09T21:30:49.337Z,4.70
2019-03-09T21:33:52.777Z,4.70
2019-03-09T21:36:56.278Z,4.70
2019-03-09T21:39:59.750Z,4.60
2019-03-09T21:43:03.218Z,4.60
2019-03-09T21:46:06.661Z,4.60
2019-03-09T21:49:10.133Z,4.60
2019-03-09T21:52:13.566Z,4.60
2019-03-09T21:55:17.400Z,4.60
2019-03-09T21:58:20.832Z,4.60
2019-03-09T22:01:24.310Z,4.60
2019-03-09T22:04:27.741Z,4.60
2019-03-09T22:07:31.204Z,4.60
2019-03-09T22:10:34.763Z,4.60
2019-03-09T22:13:38.217Z,4.60
2019-03-09T22:16:41.681Z,4.60
2019-03-09T22:19:45.117Z,4.60
2019-03-09T22:22:48.584Z,4.70
2019-03-09T22:25:52.026Z,4.70
2019-03-09T22:28:55.495Z,4.70
2019-03-09T22:31:59.023Z,4.70
2019-03-09T22:35:02.466Z,4.80
2019-03-09T22:38:05.920Z,4.80
2019-03-09T22:41:09.381Z,4.90
2019-03-09T22:44:12.826Z,5.00
2019-03-09T22:47:16.279Z,5.10
2019-03-09T22:50:24.205Z,5.10
2019-03-09T22:53:27.709Z,5.00
2019-03-09T22:56:31.173Z,5.00
2019-03-09T22:59:34.624Z,5.00
2019-03-09T23:02:38.358Z,4.90
2019-03-09T23:05:41.801Z,5.00
2019-03-09T23:08:45.249Z,5.00
2019-03-09T23:11:48.734Z,5.10
2019-03-09T23:14:52.218Z,5.10
2019-03-09T23:17:55.679Z,5.20
2019-03-09T23:20:59.121Z,5.20
2019-03-09T23:24:02.565Z,5.30
2019-03-09T23:27:06.006Z,5.30
2019-03-09T23:30:17.540Z,5.30
2019-03-09T23:33:21.042Z,5.30
2019-03-09T23:36:24.546Z,5.30
2019-03-09T23:39:28.066Z,5.30
2019-03-09T23:42:31.510Z,5.30
2019-03-09T23:45:34.965Z,5.30
2019-03-09T23:48:38.410Z,5.30
2019-03-09T23:51:41.938Z,5.20
2019-03-09T23:54:45.390Z,5.20
2019-03-09T23:57:49.271Z,5.20
